Flight Track Log - Related Links

Times and Time Zones

All times are in EDT time to prevent confusion due to time zone crossing. See the SWA3963 flight status page for this flight to view local times or setup timezone preferences in your user account.

Time Position Orientation Groundspeed Altitude Reporting Facility
EDT Latitude Longitude Course Direction KTS MPH feet Rate Location/Type
Mon 01:23:41 AM 37.6333 -122.3667 138° Southeast 159 183 1,200  Level Northern Cal TRACON
Mon 01:24:41 AM 37.7000 -122.3667 360° North 222 255 3,500 2,600 Climbing Northern Cal TRACON
Mon 01:25:41 AM 37.7333 -122.4333 302° West 243 280 6,400 3,050 Climbing Northern Cal TRACON
Mon 01:26:41 AM 37.6833 -122.4667 208° Southwest 254 292 9,600 2,550 Climbing Northern Cal TRACON
Mon 01:27:41 AM 37.6000 -122.4667 180° South 316 364 11,500 2,231 Climbing Northern Cal TRACON
Mon 01:28:42 AM 37.5333 -122.3833 135° Southeast 345 397 14,100 2,436 Climbing Northern Cal TRACON
Mon 01:29:00 AM 37.2288 -121.9352 138° Southeast  Level FlightAware Approximate
Mon 01:29:54 AM 37.4581 -122.2772 132° Southeast 364 419 16,900  Level Oakland Center
Mon 01:30:55 AM 37.3811 -122.1903 138° Southeast 371 427 18,700 2,016 Climbing Oakland Center
Mon 01:31:56 AM 37.3003 -122.0969 137° Southeast 391 450 21,000 2,016 Climbing Oakland Center
Mon 01:32:57 AM 37.2181 -122.0011 137° Southeast 402 463 22,800 1,736 Climbing Oakland Center
Mon 01:33:57 AM 37.1322 -121.9031 138° Southeast 417 480 24,500 1,488 Climbing Oakland Center
Mon 01:34:58 AM 37.0431 -121.8006 137° Southeast 436 502 25,800 1,328 Climbing Oakland Center
Mon 01:35:59 AM 36.9481 -121.6983 139° Southeast 447 514 27,200 1,388 Climbing Oakland Center
Mon 01:36:59 AM 36.8550 -121.5914 137° Southeast 454 522 28,600 1,289 Climbing Oakland Center
Mon 01:38:00 AM 36.7428 -121.4656 138° Southeast 470 541 29,800 1,574 Climbing Oakland Center
Mon 01:39:01 AM 36.6461 -121.3542 137° Southeast 473 544 31,800 1,721 Climbing Oakland Center
Mon 01:40:02 AM 36.5528 -121.2478 138° Southeast 460 529 33,300 1,140 Climbing Oakland Center
Mon 01:41:02 AM 36.4572 -121.1436 139° Southeast 457 526 34,100 843 Climbing Oakland Center
Mon 01:42:03 AM 36.3625 -121.0369 138° Southeast 458 527 35,000 443 Climbing Oakland Center
Mon 01:43:04 AM 36.2672 -120.9278 137° Southeast 463 533 35,000  Level Oakland Center
Mon 01:44:04 AM 36.1711 -120.8231 139° Southeast 462 532 35,000  Level Oakland Center
Mon 01:45:05 AM 36.0772 -120.7161 137° Southeast 461 531 35,000  Level Oakland Center
Mon 01:46:06 AM 35.9822 -120.6122 138° Southeast 460 529 35,000  Level Oakland Center
Mon 01:47:06 AM 35.8872 -120.5069 138° Southeast 459 528 35,000  Level Oakland Center
Mon 01:48:07 AM 35.7917 -120.4019 138° Southeast 459 528 35,000  Level Oakland Center
Mon 01:49:07 AM 35.6956 -120.2964 138° Southeast 459 528 35,000  Level Oakland Center
Mon 01:50:08 AM 35.5992 -120.1931 139° Southeast 458 527 35,000  Level Oakland Center
Mon 01:51:09 AM 35.5031 -120.0875 138° Southeast 458 527 35,000  Level Oakland Center
Mon 01:52:09 AM 35.4067 -119.9822 138° Southeast 458 527 35,000  Level Oakland Center
Mon 01:53:10 AM 35.3108 -119.8786 139° Southeast 458 527 35,000  Level Oakland Center
Mon 01:54:12 AM 35.2136 -119.7736 139° Southeast 458 527 35,000  Level Los Angeles Center
Mon 01:55:13 AM 35.1167 -119.6708 139° Southeast 458 527 35,000  Level Los Angeles Center
Mon 01:56:14 AM 34.9997 -119.5469 139° Southeast 460 529 35,000  Level Los Angeles Center
Mon 01:57:15 AM 34.9019 -119.4428 139° Southeast 463 533 35,000  Level Los Angeles Center
Mon 01:58:16 AM 34.8028 -119.3394 139° Southeast 464 534 35,000  Level Los Angeles Center
Mon 01:59:17 AM 34.7044 -119.2342 139° Southeast 467 537 35,000  Level Los Angeles Center
Mon 02:00:18 AM 34.6169 -119.1436 140° Southeast 468 539 35,000  Level Los Angeles Center
Mon 02:01:19 AM 34.4983 -119.0186 139° Southeast 469 540 35,000  Level Los Angeles Center
Mon 02:02:20 AM 34.3986 -118.9147 139° Southeast 472 543 35,000  Level Los Angeles Center
Mon 02:03:21 AM 34.2983 -118.8108 139° Southeast 472 543 35,000  Level Los Angeles Center
Mon 02:04:22 AM 34.1997 -118.7072 139° Southeast 472 543 35,000  Level Los Angeles Center
Mon 02:05:23 AM 34.0997 -118.6056 140° Southeast 471 542 35,000 -195 Level Los Angeles Center
Mon 02:06:25 AM 34.0028 -118.5039 139° Southeast 466 536 34,600 -634 Descending Los Angeles Center
Mon 02:07:26 AM 33.9050 -118.3967 138° Southeast 474 545 33,700 -934 Descending Los Angeles Center
Mon 02:08:27 AM 33.8081 -118.2756 134° Southeast 484 557 32,700 -1,475 Descending Los Angeles Center
Mon 02:09:28 AM 33.7150 -118.1525 132° Southeast 482 555 30,700 -2,361 Descending Los Angeles Center
Mon 02:10:29 AM 33.6233 -118.0364 133° Southeast 479 551 27,900 -2,557 Descending Los Angeles Center
Mon 02:11:30 AM 33.5353 -117.9253 134° Southeast 460 529 25,500 -2,311 Descending Los Angeles Center
Mon 02:12:31 AM 33.4503 -117.8178 133° Southeast 447 514 23,200 -2,489 Descending Los Angeles Center
Mon 02:13:04 AM 33.4000 -117.7500 132° Southeast 426 490 21,600 -2,452 Descending Southern California TRACON
Mon 02:14:04 AM 33.3167 -117.6500 135° Southeast 411 473 19,400 -2,190 Descending Southern California TRACON
Mon 02:15:10 AM 33.2333 -117.5500 135° Southeast 395 455 17,000 -2,143 Descending Southern California TRACON
Mon 02:16:10 AM 33.1500 -117.4833 146° Southeast 381 438 14,900 -2,000 Descending Southern California TRACON
Mon 02:17:10 AM 33.0667 -117.4167 146° Southeast 352 405 13,000 -1,850 Descending Southern California TRACON
Mon 02:18:10 AM 32.9833 -117.3500 146° Southeast 340 391 11,200 -1,550 Descending Southern California TRACON
Mon 02:19:10 AM 32.9167 -117.2833 140° Southeast 311 358 9,900 -1,450 Descending Southern California TRACON
Mon 02:20:10 AM 32.8500 -117.2333 148° Southeast 309 356 8,300 -1,450 Descending Southern California TRACON
Mon 02:21:10 AM 32.8000 -117.1500 126° Southeast 301 346 7,000 -1,000 Descending Southern California TRACON
Mon 02:22:10 AM 32.7833 -117.0667 103° East 249 287 6,300 -900 Descending Southern California TRACON
Mon 02:23:10 AM 32.7667 -116.9833 103° East 240 276 5,200 -1,105 Descending Southern California TRACON
Mon 02:24:04 AM 32.7333 -116.9500 140° Southeast 230 265 4,200 -789 Descending Southern California TRACON
Mon 02:25:04 AM 32.7000 -117.0000 232° Southwest 207 238 3,700 -850 Descending Southern California TRACON
Mon 02:26:04 AM 32.7000 -117.0667 270° West 198 228 2,500 -1,300 Descending Southern California TRACON
Mon 02:27:04 AM 32.7167 -117.1167 292° West 154 177 1,100 -1,188 Descending Southern California TRACON
Mon 02:27:45 AM 32.7253 -117.1553 285° West 153 176 500 -878 Descending Los Angeles Center
Mon 02:30:00 AM 32.7333 -117.1833 255° West  Level FlightAware Approximate
Mon 02:37:00 AM 32.7336 -117.1897 255° West  Level Estimated
Mon 02:38:00 AM 32.7336 -117.1897 107° East  Level Estimated

Login

Don't have an account? Register now (free) for customized features, flight alerts, and more!